sensor_id;sensor_type;location;lat;lon;timestamp;temperature;humidity
18511;DHT22;9384;48.044;11.616;2022-07-21T00:01:37;21.80;99.90
18511;DHT22;9384;48.044;11.616;2022-07-21T00:04:04;21.90;99.90
18511;DHT22;9384;48.044;11.616;2022-07-21T00:06:31;21.80;99.90
18511;DHT22;9384;48.044;11.616;2022-07-21T00:08:59;21.80;99.90
18511;DHT22;9384;48.044;11.616;2022-07-21T00:11:26;21.70;99.90
18511;DHT22;9384;48.044;11.616;2022-07-21T00:13:53;21.80;99.90
18511;DHT22;9384;48.044;11.616;2022-07-21T00:16:20;21.80;99.90
18511;DHT22;9384;48.044;11.616;2022-07-21T00:18:47;21.80;99.90
18511;DHT22;9384;48.044;11.616;2022-07-21T00:21:14;21.70;99.90
18511;DHT22;9384;48.044;11.616;2022-07-21T00:23:40;21.50;99.90
18511;DHT22;9384;48.044;11.616;2022-07-21T00:26:09;21.40;99.90
18511;DHT22;9384;48.044;11.616;2022-07-21T00:28:36;21.40;99.90
18511;DHT22;9384;48.044;11.616;2022-07-21T00:31:02;21.50;99.90
18511;DHT22;9384;48.044;11.616;2022-07-21T00:33:29;21.40;99.90
18511;DHT22;9384;48.044;11.616;2022-07-21T00:35:56;21.40;99.90
18511;DHT22;9384;48.044;11.616;2022-07-21T00:38:23;21.30;99.90
18511;DHT22;9384;48.044;11.616;2022-07-21T00:40:50;21.20;99.90
18511;DHT22;9384;48.044;11.616;2022-07-21T00:43:18;21.20;99.90
18511;DHT22;9384;48.044;11.616;2022-07-21T00:45:45;21.10;99.90
18511;DHT22;9384;48.044;11.616;2022-07-21T00:48:12;21.00;99.90
18511;DHT22;9384;48.044;11.616;2022-07-21T00:50:39;21.00;99.90
18511;DHT22;9384;48.044;11.616;2022-07-21T00:53:06;21.00;99.90
18511;DHT22;9384;48.044;11.616;2022-07-21T00:55:32;20.90;99.90
18511;DHT22;9384;48.044;11.616;2022-07-21T00:57:59;20.90;99.90
18511;DHT22;9384;48.044;11.616;2022-07-21T01:00:29;21.10;99.90
18511;DHT22;9384;48.044;11.616;2022-07-21T01:02:57;21.10;99.90
18511;DHT22;9384;48.044;11.616;2022-07-21T01:05:24;21.10;99.90
18511;DHT22;9384;48.044;11.616;2022-07-21T01:07:53;21.20;99.90
18511;DHT22;9384;48.044;11.616;2022-07-21T01:10:22;21.20;99.90
18511;DHT22;9384;48.044;11.616;2022-07-21T01:12:50;21.10;99.90
18511;DHT22;9384;48.044;11.616;2022-07-21T01:15:18;21.00;99.90
18511;DHT22;9384;48.044;11.616;2022-07-21T01:17:47;21.00;99.90
18511;DHT22;9384;48.044;11.616;2022-07-21T01:20:15;20.90;99.90
18511;DHT22;9384;48.044;11.616;2022-07-21T01:22:45;20.90;99.90
18511;DHT22;9384;48.044;11.616;2022-07-21T01:25:13;20.90;99.90
18511;DHT22;9384;48.044;11.616;2022-07-21T01:27:40;20.90;99.90
18511;DHT22;9384;48.044;11.616;2022-07-21T01:30:08;20.90;99.90
18511;DHT22;9384;48.044;11.616;2022-07-21T01:32:35;20.90;99.90
18511;DHT22;9384;48.044;11.616;2022-07-21T01:35:03;21.00;99.90
18511;DHT22;9384;48.044;11.616;2022-07-21T01:37:31;21.00;99.90
18511;DHT22;9384;48.044;11.616;2022-07-21T01:39:59;21.10;99.90
18511;DHT22;9384;48.044;11.616;2022-07-21T01:42:43;21.10;99.90
18511;DHT22;9384;48.044;11.616;2022-07-21T01:45:10;21.10;99.90
18511;DHT22;9384;48.044;11.616;2022-07-21T01:47:37;21.10;99.90
18511;DHT22;9384;48.044;11.616;2022-07-21T01:50:06;21.10;99.90
18511;DHT22;9384;48.044;11.616;2022-07-21T01:52:33;21.10;99.90
18511;DHT22;9384;48.044;11.616;2022-07-21T01:55:02;20.70;99.90
18511;DHT22;9384;48.044;11.616;2022-07-21T01:57:30;20.60;99.90
